createdAt,value
2023-05-05T00:00:15.748Z,71.43
2023-05-05T00:01:15.747Z,71.12
2023-05-05T00:02:15.646Z,70.92
2023-05-05T00:03:15.652Z,71.43
2023-05-05T00:04:15.727Z,71.23
2023-05-05T00:05:15.603Z,71.33
2023-05-05T00:06:15.601Z,70.51
2023-05-05T00:07:15.593Z,71.53
2023-05-05T00:08:15.570Z,70.82
2023-05-05T00:09:15.547Z,71.84
2023-05-05T00:10:15.555Z,71.84
2023-05-05T00:11:15.531Z,71.53
2023-05-05T00:12:15.619Z,71.12
2023-05-05T00:13:15.553Z,71.23
2023-05-05T00:14:15.518Z,71.64
2023-05-05T00:15:15.575Z,71.80
2023-05-05T00:16:15.487Z,72.41
2023-05-05T00:17:15.528Z,70.99
2023-05-05T00:18:15.507Z,70.18
2023-05-05T00:19:15.448Z,70.48
2023-05-05T00:20:15.467Z,71.47
2023-05-05T00:21:15.430Z,70.65
2023-05-05T00:22:15.464Z,71.06
2023-05-05T00:23:15.395Z,69.53
2023-05-05T00:24:15.380Z,71.06
2023-05-05T00:25:15.388Z,70.65
2023-05-05T00:26:15.346Z,70.25
2023-05-05T00:27:15.316Z,69.53
2023-05-05T00:28:15.375Z,69.30
2023-05-05T00:29:15.372Z,68.92
2023-05-05T00:30:15.349Z,69.43
2023-05-05T00:31:15.353Z,69.94
2023-05-05T00:32:15.360Z,70.55
2023-05-05T00:33:15.353Z,70.45
2023-05-05T00:34:15.317Z,70.35
2023-05-05T00:35:15.311Z,70.86
2023-05-05T00:36:15.292Z,70.04
2023-05-05T00:37:15.274Z,70.14
2023-05-05T00:38:15.284Z,70.35
2023-05-05T00:39:15.241Z,71.30
2023-05-05T00:40:15.257Z,70.48
2023-05-05T00:41:15.269Z,70.89
2023-05-05T00:42:15.226Z,71.80
2023-05-05T00:43:15.202Z,71.09
2023-05-05T00:44:15.259Z,71.50
2023-05-05T00:45:15.207Z,71.09
2023-05-05T00:46:15.213Z,70.72
2023-05-05T00:47:15.169Z,71.53
2023-05-05T00:48:15.171Z,71.40
2023-05-05T00:49:15.158Z,70.79
2023-05-05T00:50:15.165Z,70.79
2023-05-05T00:51:15.183Z,71.30
2023-05-05T00:52:15.148Z,70.58
2023-05-05T00:53:15.123Z,70.38
2023-05-05T00:54:15.101Z,71.19
2023-05-05T00:55:15.128Z,71.60
2023-05-05T00:56:15.121Z,70.68
2023-05-05T00:57:15.125Z,70.38
2023-05-05T00:58:15.180Z,70.68
2023-05-05T00:59:15.068Z,72.01
2023-05-05T01:00:15.069Z,71.70
2023-05-05T01:01:15.163Z,70.68
2023-05-05T01:02:15.064Z,70.92
2023-05-05T01:03:15.064Z,71.23
2023-05-05T01:04:15.013Z,72.21
2023-05-05T01:05:15.027Z,71.50
2023-05-05T01:07:53.596Z,70.68
2023-05-05T01:08:54.593Z,71.53
2023-05-05T01:10:07.258Z,71.53
2023-05-05T01:10:54.535Z,71.23
2023-05-05T01:11:54.570Z,72.14
2023-05-05T01:12:54.538Z,71.94
2023-05-05T01:13:54.516Z,71.94
2023-05-05T01:14:54.498Z,72.17
2023-05-05T01:15:54.510Z,72.28
2023-05-05T01:16:54.466Z,72.08
2023-05-05T01:17:54.539Z,71.47
2023-05-05T01:18:54.480Z,71.87
2023-05-05T01:19:54.454Z,71.56
2023-05-05T01:20:54.443Z,71.87
2023-05-05T01:21:54.462Z,72.28
2023-05-05T01:22:54.412Z,72.25
2023-05-05T01:23:54.397Z,73.06
2023-05-05T01:24:54.410Z,72.55
2023-05-05T01:25:54.452Z,73.06
2023-05-05T01:26:54.364Z,71.84
2023-05-05T01:27:54.364Z,72.34
2023-05-05T01:28:54.394Z,71.94
2023-05-05T01:29:54.349Z,71.84
2023-05-05T01:30:54.345Z,71.84
2023-05-05T01:31:54.375Z,72.25
2023-05-05T01:32:54.351Z,72.96
2023-05-05T01:33:54.379Z,72.14
2023-05-05T01:34:54.288Z,71.94
2023-05-05T01:35:54.287Z,72.86
2023-05-05T01:36:54.260Z,71.02
2023-05-05T01:37:54.278Z,70.82
2023-05-05T01:38:54.240Z,71.02
2023-05-05T01:39:54.277Z,71.43
2023-05-05T01:40:54.225Z,71.33
2023-05-05T01:41:54.229Z,70.92
2023-05-05T01:42:54.244Z,69.90
2023-05-05T01:43:54.209Z,69.87
2023-05-05T01:44:54.201Z,70.58
2023-05-05T01:45:54.208Z,71.50
2023-05-05T01:46:54.213Z,70.38
2023-05-05T01:47:54.236Z,72.21
2023-05-05T01:48:54.160Z,71.60
2023-05-05T01:49:54.127Z,71.09
2023-05-05T01:50:54.141Z,70.99
2023-05-05T01:51:54.121Z,71.50
2023-05-05T01:52:54.157Z,71.50
2023-05-05T01:53:54.127Z,72.01
2023-05-05T01:54:54.076Z,71.91
2023-05-05T01:55:54.102Z,71.40
2023-05-05T01:56:54.096Z,71.19
2023-05-05T01:57:54.043Z,71.33
2023-05-05T01:58:54.100Z,71.23
2023-05-05T01:59:54.057Z,72.55
2023-05-05T02:00:54.125Z,72.65
2023-05-05T02:01:54.008Z,72.14
2023-05-05T02:02:54.107Z,71.94
2023-05-05T02:03:54.003Z,72.34
2023-05-05T02:04:53.992Z,72.58
2023-05-05T02:05:53.952Z,72.38
2023-05-05T02:06:53.981Z,72.99
2023-05-05T02:07:53.962Z,72.38
2023-05-05T02:08:53.969Z,72.69
2023-05-05T02:09:53.943Z,72.58
2023-05-05T02:10:53.926Z,72.78
2023-05-05T02:11:53.918Z,72.89
2023-05-05T02:12:53.998Z,72.69
2023-05-05T02:13:53.955Z,72.99
2023-05-05T02:14:53.945Z,74.01
2023-05-05T02:15:53.883Z,73.91
2023-05-05T02:16:53.944Z,74.11
2023-05-05T02:17:54.016Z,73.10
2023-05-05T02:18:53.944Z,72.99
2023-05-05T02:19:53.828Z,72.28
2023-05-05T02:20:53.825Z,72.38
2023-05-05T02:21:53.758Z,72.58
2023-05-05T02:22:53.796Z,72.82
2023-05-05T02:23:53.791Z,73.43
2023-05-05T02:24:53.810Z,73.02
2023-05-05T02:25:53.789Z,73.13
2023-05-05T02:26:53.775Z,73.23
2023-05-05T02:27:53.779Z,73.97
2023-05-05T02:28:53.745Z,74.28
2023-05-05T02:29:53.748Z,74.04
2023-05-05T02:30:53.730Z,74.96
2023-05-05T02:31:53.761Z,74.55
2023-05-05T02:32:53.781Z,74.04
2023-05-05T02:33:53.711Z,74.15
2023-05-05T02:34:53.709Z,74.25
2023-05-05T02:35:53.679Z,73.64
2023-05-05T02:36:53.707Z,73.94
2023-05-05T02:37:53.639Z,74.65
2023-05-05T02:38:53.665Z,74.76
2023-05-05T02:39:53.631Z,74.25
2023-05-05T02:40:53.631Z,75.27
2023-05-05T02:41:53.611Z,74.35
2023-05-05T02:42:53.659Z,74.41
2023-05-05T02:43:53.626Z,73.71
2023-05-05T02:44:53.595Z,74.35
2023-05-05T02:45:53.592Z,74.62
2023-05-05T02:46:53.571Z,75.02
2023-05-05T02:47:53.648Z,74.21
2023-05-05T02:48:53.527Z,74.21
2023-05-05T02:49:53.516Z,73.50
2023-05-05T02:50:53.517Z,73.71
2023-05-05T02:51:53.541Z,73.50
2023-05-05T02:52:53.480Z,74.21
2023-05-05T02:53:53.540Z,73.87
2023-05-05T02:54:53.475Z,73.47
2023-05-05T02:55:53.463Z,73.57
2023-05-05T02:56:53.475Z,74.18
2023-05-05T02:57:53.423Z,73.67
2023-05-05T02:58:53.433Z,75.30
2023-05-05T02:59:53.400Z,74.62
2023-05-05T03:00:53.457Z,73.80
2023-05-05T03:01:53.501Z,73.71
2023-05-05T03:02:53.429Z,73.71
2023-05-05T03:03:53.536Z,74.21
2023-05-05T03:04:53.354Z,74.11
2023-05-05T03:05:53.351Z,73.91
2023-05-05T03:06:53.370Z,74.11
2023-05-05T03:07:53.368Z,75.54
2023-05-05T03:08:53.361Z,74.72
2023-05-05T03:09:53.303Z,75.84
2023-05-05T03:10:53.338Z,75.13
2023-05-05T03:11:53.281Z,74.72
2023-05-05T03:12:53.356Z,74.82
2023-05-05T03:13:53.281Z,74.62
2023-05-05T03:14:53.308Z,74.32
2023-05-05T03:15:53.255Z,74.82
2023-05-05T03:16:53.254Z,74.41
2023-05-05T03:17:53.265Z,74.32
2023-05-05T03:18:53.250Z,75.02
2023-05-05T03:19:53.213Z,75.78
2023-05-05T03:20:53.244Z,75.06
2023-05-05T03:21:53.208Z,74.45
2023-05-05T03:22:53.198Z,74.65
2023-05-05T03:23:53.180Z,74.86
2023-05-05T03:24:53.179Z,75.88
2023-05-05T03:25:53.155Z,76.08
2023-05-05T03:26:53.078Z,76.08
2023-05-05T03:27:53.108Z,75.78
2023-05-05T03:28:53.089Z,75.88
2023-05-05T03:29:53.069Z,77.10
2023-05-05T03:30:53.030Z,76.39
2023-05-05T03:31:53.030Z,76.08
2023-05-05T03:32:53.046Z,75.98
2023-05-05T03:33:53.033Z,75.30
2023-05-05T03:34:53.035Z,75.47
2023-05-05T03:35:53.013Z,76.69
2023-05-05T03:36:53.000Z,76.90
2023-05-05T03:37:52.980Z,77.51
2023-05-05T03:38:52.965Z,77.51
2023-05-05T03:39:52.924Z,77.20
2023-05-05T03:40:52.972Z,76.59
2023-05-05T03:41:52.921Z,77.10
2023-05-05T03:42:52.927Z,77.30
2023-05-05T03:43:52.968Z,77.10
2023-05-05T03:44:52.916Z,76.65
2023-05-05T03:45:52.972Z,76.76
2023-05-05T03:46:52.877Z,76.56
2023-05-05T03:47:53.029Z,77.17
2023-05-05T03:48:52.985Z,76.86
2023-05-05T03:49:52.860Z,76.76
2023-05-05T03:50:52.827Z,76.65
2023-05-05T03:51:52.835Z,76.65
2023-05-05T03:52:52.822Z,76.31
2023-05-05T03:53:52.840Z,75.91
2023-05-05T03:54:52.924Z,75.70
2023-05-05T03:55:52.772Z,76.01
2023-05-05T03:56:52.789Z,76.42
2023-05-05T03:57:52.766Z,76.11
2023-05-05T03:58:52.750Z,76.11
2023-05-05T03:59:52.731Z,76.72
2023-05-05T04:00:52.758Z,76.31
2023-05-05T04:01:52.728Z,76.01
2023-05-05T04:02:52.808Z,75.91
2023-05-05T04:03:52.835Z,76.11
2023-05-05T04:04:52.685Z,76.11
2023-05-05T04:05:52.676Z,76.31
2023-05-05T04:06:52.671Z,75.81
2023-05-05T04:07:52.683Z,76.11
2023-05-05T04:08:53.717Z,76.42
2023-05-05T04:09:53.074Z,76.11
2023-05-05T04:10:52.675Z,76.92
2023-05-05T04:11:52.671Z,76.65
2023-05-05T04:12:52.703Z,76.82
2023-05-05T04:13:52.599Z,76.86
2023-05-05T04:14:52.605Z,76.76
2023-05-05T04:15:52.630Z,76.96
2023-05-05T04:16:52.625Z,78.69
2023-05-05T04:17:52.758Z,76.96
2023-05-05T04:18:52.587Z,77.03
2023-05-05T04:19:52.657Z,76.92
2023-05-05T04:20:52.552Z,76.52
2023-05-05T04:21:52.531Z,77.98
2023-05-05T04:22:52.791Z,77.57
2023-05-05T04:23:52.517Z,77.37
2023-05-05T04:24:52.486Z,77.06
2023-05-05T04:25:52.471Z,77.57
2023-05-05T04:26:52.493Z,77.78
2023-05-05T04:27:52.460Z,77.47
2023-05-05T04:28:52.449Z,77.47
2023-05-05T04:29:52.448Z,78.19
2023-05-05T04:30:52.493Z,77.67
2023-05-05T04:31:52.445Z,78.49
2023-05-05T04:32:52.464Z,77.98
2023-05-05T04:33:52.424Z,77.78
2023-05-05T04:34:52.427Z,78.28
2023-05-05T04:35:52.391Z,77.78
2023-05-05T04:36:52.394Z,77.87
2023-05-05T04:37:52.352Z,77.53
2023-05-05T04:38:52.411Z,77.23
2023-05-05T04:39:52.333Z,76.28
2023-05-05T04:40:52.361Z,76.18
2023-05-05T04:41:52.324Z,75.43
2023-05-05T04:42:52.305Z,74.82
2023-05-05T04:43:52.281Z,74.99
2023-05-05T04:44:52.312Z,74.38
2023-05-05T04:45:52.303Z,74.28
2023-05-05T04:46:52.358Z,75.49
2023-05-05T04:47:52.278Z,74.88
2023-05-05T04:48:52.249Z,74.68
2023-05-05T04:49:52.255Z,74.44
2023-05-05T04:50:52.288Z,75.16
2023-05-05T04:51:52.210Z,75.87
2023-05-05T04:52:52.784Z,75.76
2023-05-05T04:53:52.193Z,75.05
2023-05-05T04:54:52.188Z,75.26
2023-05-05T04:55:52.182Z,75.36
2023-05-05T04:56:52.165Z,75.97
2023-05-05T04:57:52.162Z,74.34
2023-05-05T04:58:52.141Z,74.24
2023-05-05T04:59:52.167Z,74.24
2023-05-05T05:00:52.268Z,74.04
2023-05-05T05:01:52.233Z,74.31
2023-05-05T05:02:52.249Z,74.62
2023-05-05T05:03:52.204Z,74.41
2023-05-05T05:04:52.144Z,74.41
2023-05-05T05:05:52.063Z,74.51
2023-05-05T05:06:52.074Z,73.60
2023-05-05T05:07:52.049Z,74.92
2023-05-05T05:08:52.058Z,74.51
2023-05-05T05:09:52.019Z,74.01
2023-05-05T05:10:52.036Z,75.12
2023-05-05T05:11:52.058Z,74.51
2023-05-05T05:12:51.989Z,74.41
2023-05-05T05:13:52.015Z,73.60
2023-05-05T05:14:51.959Z,74.51
2023-05-05T05:15:52.007Z,74.01
2023-05-05T05:16:52.066Z,73.70
2023-05-05T05:17:52.013Z,74.41
2023-05-05T05:18:52.055Z,73.90
2023-05-05T05:19:51.924Z,74.92
2023-05-05T05:20:51.914Z,74.31
2023-05-05T05:21:51.907Z,75.12
2023-05-05T05:22:51.929Z,75.43
2023-05-05T05:23:51.853Z,75.93
2023-05-05T05:24:51.893Z,74.62
2023-05-05T05:25:51.874Z,74.41
2023-05-05T05:26:51.939Z,74.51
2023-05-05T05:28:02.309Z,74.01
2023-05-05T05:28:51.926Z,73.70
2023-05-05T05:29:51.823Z,74.51
2023-05-05T05:30:51.831Z,75.02
2023-05-05T05:31:51.809Z,74.92
2023-05-05T05:32:51.866Z,74.92
2023-05-05T05:33:51.812Z,74.21
2023-05-05T05:34:51.768Z,74.62
2023-05-05T05:35:52.681Z,74.82
2023-05-05T05:36:51.749Z,75.22
2023-05-05T05:37:52.701Z,74.62
2023-05-05T05:38:51.740Z,75.73
2023-05-05T05:39:52.660Z,75.52
2023-05-05T05:40:51.720Z,75.32
2023-05-05T05:41:51.742Z,76.75
2023-05-05T05:42:51.700Z,76.37
2023-05-05T05:43:52.563Z,75.46
2023-05-05T05:44:51.663Z,77.19
2023-05-05T05:45:51.819Z,76.07
2023-05-05T05:46:51.629Z,76.17
2023-05-05T05:47:51.668Z,75.46
2023-05-05T05:48:51.655Z,76.28
2023-05-05T05:49:51.636Z,76.28
2023-05-05T05:50:51.588Z,76.07
2023-05-05T05:51:51.570Z,75.76
2023-05-05T05:52:51.584Z,75.32
2023-05-05T05:53:51.554Z,74.62
2023-05-05T05:54:51.582Z,75.52
2023-05-05T05:55:51.533Z,73.80
2023-05-05T05:56:51.542Z,75.63
2023-05-05T05:57:51.531Z,75.22
2023-05-05T05:58:51.495Z,75.83
2023-05-05T05:59:51.502Z,75.93
2023-05-05T06:00:51.504Z,73.66
2023-05-05T06:01:51.519Z,74.98
2023-05-05T06:04:26.698Z,75.09
2023-05-05T06:05:27.650Z,76.31
2023-05-05T06:06:27.610Z,74.68
2023-05-05T06:07:27.638Z,75.56
2023-05-05T06:08:27.604Z,74.38
2023-05-05T06:09:27.597Z,74.04
2023-05-05T06:10:28.512Z,74.95
2023-05-05T06:11:27.553Z,73.22
2023-05-05T06:12:27.561Z,72.92
2023-05-05T06:13:27.599Z,74.14
2023-05-05T06:14:27.593Z,75.46
2023-05-05T06:15:27.566Z,76.27
2023-05-05T06:16:27.578Z,77.18
2023-05-05T06:17:27.675Z,76.67
2023-05-05T06:18:27.599Z,77.69
2023-05-05T06:19:27.493Z,76.87
2023-05-05T06:20:27.501Z,75.46
2023-05-05T06:21:27.475Z,78.19
2023-05-05T06:22:27.510Z,77.28
2023-05-05T06:23:27.464Z,76.47
2023-05-05T06:24:27.446Z,76.98
2023-05-05T06:25:27.449Z,76.54
2023-05-05T06:26:27.408Z,76.33
2023-05-05T06:27:27.441Z,76.54
2023-05-05T06:28:27.387Z,77.04
2023-05-05T06:29:27.371Z,76.33
2023-05-05T06:30:27.391Z,76.40
2023-05-05T06:31:27.407Z,74.57
2023-05-05T06:32:27.359Z,75.38
2023-05-05T06:33:27.341Z,75.18
2023-05-05T06:34:27.604Z,76.29
2023-05-05T06:35:27.399Z,74.57
2023-05-05T06:36:27.322Z,74.54
2023-05-05T06:37:27.274Z,76.06
2023-05-05T06:38:27.289Z,74.74
2023-05-05T06:39:27.298Z,74.44
2023-05-05T06:40:27.268Z,74.33
2023-05-05T06:41:27.300Z,74.74
2023-05-05T06:42:27.257Z,74.33
2023-05-05T06:43:27.263Z,74.04
2023-05-05T06:44:27.266Z,75.35
2023-05-05T06:45:27.196Z,74.60
2023-05-05T06:46:27.245Z,73.80
2023-05-05T06:47:27.300Z,74.60
2023-05-05T06:48:27.166Z,75.31
2023-05-05T06:49:27.169Z,72.99
2023-05-05T06:50:27.218Z,75.21
2023-05-05T06:51:27.145Z,73.66
2023-05-05T06:52:27.153Z,73.46
2023-05-05T06:53:27.219Z,72.95
2023-05-05T06:54:27.115Z,72.44
2023-05-05T06:55:27.126Z,71.03
2023-05-05T06:56:27.125Z,71.94
2023-05-05T06:57:27.076Z,72.65
2023-05-05T06:58:27.084Z,72.34
2023-05-05T06:59:27.081Z,71.73
2023-05-05T07:00:27.134Z,72.81
2023-05-05T07:01:27.161Z,72.21
2023-05-05T07:02:27.131Z,70.79
2023-05-05T07:03:27.031Z,73.15
2023-05-05T07:04:27.025Z,73.15
2023-05-05T07:05:27.755Z,72.55
2023-05-05T07:06:26.980Z,71.73
2023-05-05T07:07:27.011Z,70.62
2023-05-05T07:08:27.022Z,70.42
2023-05-05T07:09:26.961Z,72.24
2023-05-05T07:10:27.957Z,73.66
2023-05-05T07:11:27.000Z,71.73
2023-05-05T07:12:26.959Z,71.44
2023-05-05T07:13:26.946Z,72.75
2023-05-05T07:14:26.965Z,71.44
2023-05-05T07:15:29.205Z,72.14
2023-05-05T07:16:26.879Z,72.75
2023-05-05T07:17:26.893Z,71.73
2023-05-05T07:18:26.886Z,70.89
2023-05-05T07:19:26.884Z,71.94
2023-05-05T07:20:26.972Z,72.11
2023-05-05T07:21:26.845Z,71.70
2023-05-05T07:22:26.806Z,72.61
2023-05-05T07:23:26.874Z,71.60
2023-05-05T07:24:26.808Z,72.51
2023-05-05T07:25:26.839Z,75.61
2023-05-05T07:26:26.771Z,72.81
2023-05-05T07:27:26.795Z,71.00
2023-05-05T07:28:26.749Z,70.09
2023-05-05T07:29:26.736Z,70.18
2023-05-05T07:30:26.838Z,71.50
2023-05-05T07:31:26.921Z,71.20
2023-05-05T07:32:26.791Z,70.49
2023-05-05T07:33:26.712Z,72.51
2023-05-05T07:34:26.730Z,70.69
2023-05-05T07:35:26.701Z,71.00
2023-05-05T07:36:26.672Z,71.00
2023-05-05T07:37:26.921Z,69.98
2023-05-05T07:38:26.817Z,70.49
2023-05-05T07:39:26.673Z,70.79
2023-05-05T07:40:26.698Z,74.54
2023-05-05T07:41:26.690Z,73.72
2023-05-05T07:42:26.836Z,71.50
2023-05-05T07:43:26.652Z,70.89
2023-05-05T07:44:26.577Z,71.57
2023-05-05T07:45:26.570Z,70.66
2023-05-05T07:46:26.649Z,71.06
2023-05-05T07:47:26.628Z,72.68
2023-05-05T07:48:26.548Z,73.49
2023-05-05T07:49:26.580Z,72.48
2023-05-05T07:50:26.568Z,72.38
2023-05-05T07:51:26.553Z,72.68
2023-05-05T07:52:37.697Z,70.83
2023-05-05T07:53:26.526Z,70.53
2023-05-05T07:54:26.514Z,70.12
2023-05-05T07:55:26.472Z,71.03
2023-05-05T07:56:26.467Z,71.03
2023-05-05T07:57:26.503Z,71.23
2023-05-05T07:58:26.484Z,69.42
2023-05-05T07:59:26.503Z,70.32
2023-05-05T08:00:26.437Z,69.68
2023-05-05T08:01:26.427Z,70.69
2023-05-05T08:02:26.500Z,69.89
2023-05-05T08:03:26.706Z,68.07
2023-05-05T08:04:26.399Z,69.04
2023-05-05T08:05:26.396Z,71.06
2023-05-05T08:06:26.356Z,69.75
2023-05-05T08:07:26.377Z,72.07
2023-05-05T08:08:26.349Z,69.92
2023-05-05T08:09:26.336Z,71.03
2023-05-05T08:10:26.316Z,71.33
2023-05-05T08:11:27.795Z,69.82
2023-05-05T08:12:26.300Z,67.97
2023-05-05T08:13:26.385Z,70.59
2023-05-05T08:14:26.272Z,69.68
2023-05-05T08:15:26.322Z,66.89
2023-05-05T08:16:26.369Z,69.21
2023-05-05T08:17:26.293Z,66.79
2023-05-05T08:18:26.299Z,67.60
2023-05-05T08:19:29.312Z,68.10
2023-05-05T08:20:26.238Z,68.30
2023-05-05T08:21:26.212Z,70.32
2023-05-05T08:22:26.211Z,67.60
2023-05-05T08:23:26.204Z,69.62
2023-05-05T08:24:26.303Z,68.10
2023-05-05T08:25:26.242Z,67.10
2023-05-05T08:26:26.165Z,67.36
2023-05-05T08:27:26.159Z,67.67
2023-05-05T08:28:26.229Z,68.57
2023-05-05T08:29:26.170Z,66.16
2023-05-05T08:30:26.162Z,69.68
2023-05-05T08:31:26.214Z,68.68
2023-05-05T08:32:28.437Z,66.05
2023-05-05T08:33:26.069Z,70.79
2023-05-05T08:34:26.081Z,70.19
2023-05-05T08:35:26.093Z,69.79
2023-05-05T08:36:26.053Z,68.57
2023-05-05T08:37:26.059Z,69.89
2023-05-05T08:38:26.027Z,68.95
2023-05-05T08:39:26.068Z,66.22
2023-05-05T08:40:26.001Z,66.42
2023-05-05T08:41:26.048Z,69.85
2023-05-05T08:42:36.989Z,67.74
2023-05-05T08:43:26.020Z,69.32
2023-05-05T08:44:25.966Z,67.91
2023-05-05T08:45:25.981Z,66.09
2023-05-05T08:46:25.975Z,67.50
2023-05-05T08:47:25.963Z,65.99
2023-05-05T08:48:25.916Z,65.99
2023-05-05T08:49:25.943Z,69.55
2023-05-05T08:50:25.915Z,70.97
2023-05-05T08:51:25.931Z,69.72
2023-05-05T08:52:25.939Z,69.92
2023-05-05T08:53:25.901Z,69.42
2023-05-05T08:54:25.861Z,68.88
2023-05-05T08:55:25.863Z,66.77
2023-05-05T08:56:25.852Z,67.68
2023-05-05T08:57:25.854Z,67.77
2023-05-05T08:58:27.003Z,68.18
2023-05-05T08:59:25.862Z,68.18
2023-05-05T09:00:25.794Z,70.50
2023-05-05T09:01:25.806Z,68.58
2023-05-05T09:02:25.834Z,67.03
2023-05-05T09:03:25.792Z,68.85
2023-05-05T09:04:25.765Z,67.24
2023-05-05T09:05:25.788Z,69.62
2023-05-05T09:06:25.757Z,68.71
2023-05-05T09:07:25.750Z,64.29
2023-05-05T09:08:25.725Z,65.39
2023-05-05T09:09:25.720Z,68.95
2023-05-05T09:10:25.714Z,70.56
2023-05-05T09:11:25.680Z,70.63
2023-05-05T09:12:25.696Z,66.30
2023-05-05T09:13:25.669Z,64.99
2023-05-05T09:14:25.653Z,68.11
2023-05-05T09:15:25.658Z,67.41
2023-05-05T09:16:25.629Z,64.29
2023-05-05T09:17:25.699Z,65.09
2023-05-05T09:18:25.622Z,65.83
2023-05-05T09:19:25.638Z,68.35
2023-05-05T09:20:25.597Z,66.20
2023-05-05T09:21:25.607Z,67.31
2023-05-05T09:22:25.570Z,68.71
2023-05-05T09:23:25.623Z,69.82
2023-05-05T09:24:25.592Z,66.20
2023-05-05T09:25:25.556Z,66.50
2023-05-05T09:26:25.553Z,65.90
2023-05-05T09:27:25.537Z,64.29
2023-05-05T09:28:25.511Z,65.39
2023-05-05T09:29:25.591Z,66.63
2023-05-05T09:30:25.496Z,67.24
2023-05-05T09:31:25.561Z,70.12
2023-05-05T09:32:25.545Z,65.47
2023-05-05T09:33:25.488Z,66.97
2023-05-05T09:34:25.618Z,66.24
2023-05-05T09:35:25.440Z,63.82
2023-05-05T09:36:25.420Z,66.31
2023-05-05T09:37:25.426Z,64.97
2023-05-05T09:38:25.420Z,64.10
2023-05-05T09:39:25.420Z,66.11
2023-05-05T09:40:25.416Z,65.10
2023-05-05T09:41:25.408Z,66.61
2023-05-05T09:42:25.394Z,64.57
2023-05-05T09:43:25.375Z,62.36
2023-05-05T09:44:25.372Z,61.55
2023-05-05T09:45:25.328Z,60.75
2023-05-05T09:46:25.365Z,63.56
2023-05-05T09:47:29.532Z,64.30
2023-05-05T09:48:25.309Z,63.26
2023-05-05T09:49:25.331Z,62.73
2023-05-05T09:50:25.282Z,64.61
2023-05-05T09:51:25.302Z,62.27
2023-05-05T09:52:25.249Z,62.17
2023-05-05T09:53:25.280Z,61.87
2023-05-05T09:54:25.334Z,60.16
2023-05-05T09:55:25.250Z,62.17
2023-05-05T09:56:25.232Z,62.40
2023-05-05T09:57:25.231Z,63.81
2023-05-05T09:58:25.265Z,62.90
2023-05-05T09:59:25.218Z,64.51
2023-05-05T10:00:25.211Z,67.29
2023-05-05T10:01:25.164Z,61.36
2023-05-05T10:02:25.216Z,59.89
2023-05-05T10:03:25.176Z,61.60
2023-05-05T10:04:25.285Z,61.10
2023-05-05T10:05:25.275Z,62.40
2023-05-05T10:06:25.130Z,63.70
2023-05-05T10:07:25.117Z,62.07
2023-05-05T10:08:25.083Z,60.03
2023-05-05T10:09:25.115Z,62.11
2023-05-05T10:10:26.508Z,60.81
2023-05-05T10:11:25.060Z,60.28
2023-05-05T10:12:25.039Z,60.08
2023-05-05T10:13:25.128Z,58.07
2023-05-05T10:14:25.017Z,59.95
2023-05-05T10:15:25.046Z,56.05
2023-05-05T10:16:26.301Z,59.25
2023-05-05T10:17:25.029Z,59.78
2023-05-05T10:18:25.095Z,58.70
2023-05-05T10:19:24.972Z,60.51
2023-05-05T10:20:25.056Z,62.11
2023-05-05T10:21:24.989Z,60.01
2023-05-05T10:22:24.937Z,61.01
2023-05-05T10:23:24.953Z,60.71
2023-05-05T10:24:24.939Z,60.81
2023-05-05T10:25:24.926Z,59.50
2023-05-05T10:26:24.909Z,59.94
2023-05-05T10:27:24.925Z,62.07
2023-05-05T10:28:24.882Z,60.27
2023-05-05T10:29:24.877Z,60.69
2023-05-05T10:30:24.881Z,60.77
2023-05-05T10:31:26.427Z,60.89
2023-05-05T10:32:51.422Z,60.96
2023-05-05T10:34:24.922Z,60.98
2023-05-05T10:35:24.923Z,62.66
2023-05-05T10:36:24.862Z,63.23
2023-05-05T10:37:24.840Z,61.19
2023-05-05T10:38:26.868Z,60.86
2023-05-05T10:39:24.776Z,61.14
2023-05-05T10:40:24.788Z,59.31
2023-05-05T10:41:24.772Z,57.20
2023-05-05T10:42:24.848Z,58.73
2023-05-05T10:43:24.826Z,58.46
2023-05-05T10:44:24.744Z,60.57
2023-05-05T10:45:24.921Z,59.16
2023-05-05T10:46:24.823Z,59.26
2023-05-05T10:47:24.757Z,59.77
2023-05-05T10:48:24.777Z,58.69
2023-05-05T10:49:24.694Z,63.70
2023-05-05T10:50:24.669Z,58.96
2023-05-05T10:51:35.955Z,59.86
2023-05-05T10:52:24.688Z,59.56
2023-05-05T10:53:24.654Z,60.94
2023-05-05T10:54:24.707Z,59.94
2023-05-05T10:55:24.623Z,57.93
2023-05-05T10:56:24.614Z,57.80
2023-05-05T10:57:24.597Z,56.98
2023-05-05T10:58:24.621Z,57.45
2023-05-05T10:59:24.556Z,56.24
2023-05-05T11:00:24.587Z,55.77
2023-05-05T11:01:24.667Z,57.10
2023-05-05T11:02:24.944Z,56.63
2023-05-05T11:03:24.636Z,57.35
2023-05-05T11:05:47.047Z,59.66
2023-05-05T11:06:48.050Z,58.83
2023-05-05T11:07:48.203Z,57.33
2023-05-05T11:08:48.062Z,58.50
2023-05-05T11:09:48.831Z,56.67
2023-05-05T11:10:47.995Z,56.87
2023-05-05T11:11:47.975Z,56.57
2023-05-05T11:12:47.989Z,55.77
2023-05-05T11:13:47.975Z,55.87
2023-05-05T11:14:47.928Z,55.98
2023-05-05T11:15:47.925Z,55.50
2023-05-05T11:16:48.269Z,56.02
2023-05-05T11:17:47.987Z,56.40
2023-05-05T11:18:47.928Z,56.00
2023-05-05T11:19:47.898Z,56.30
2023-05-05T11:20:47.873Z,55.17
2023-05-05T11:21:47.881Z,56.48
2023-05-05T11:22:47.885Z,55.65
2023-05-05T11:23:47.865Z,55.35
2023-05-05T11:24:47.828Z,54.85
2023-05-05T11:25:47.812Z,54.90
2023-05-05T11:26:47.816Z,55.82
2023-05-05T11:27:47.802Z,56.23
2023-05-05T11:28:47.795Z,58.13
2023-05-05T11:29:48.659Z,58.43
2023-05-05T11:30:47.845Z,57.50
2023-05-05T11:31:47.827Z,57.00
2023-05-05T11:32:47.790Z,58.28
2023-05-05T11:33:47.832Z,55.07
2023-05-05T11:34:47.774Z,55.27
2023-05-05T11:35:47.735Z,55.17
2023-05-05T11:36:47.709Z,57.57
2023-05-05T11:37:47.693Z,55.74
2023-05-05T11:38:47.671Z,56.82
2023-05-05T11:39:47.679Z,55.52
2023-05-05T11:40:47.741Z,55.22
2023-05-05T11:41:47.816Z,54.72
2023-05-05T11:42:47.636Z,56.72
2023-05-05T11:43:47.656Z,55.62
2023-05-05T11:44:47.620Z,55.05
2023-05-05T11:45:47.690Z,53.14
2023-05-05T11:46:47.615Z,54.17
2023-05-05T11:47:47.625Z,55.17
2023-05-05T11:48:47.574Z,53.89
2023-05-05T11:49:47.596Z,53.89
2023-05-05T12:00:37.619Z,56.87
2023-05-05T12:01:20.280Z,56.67
2023-05-05T12:02:20.322Z,56.27
2023-05-05T12:03:20.297Z,55.87
2023-05-05T12:04:20.292Z,55.57
2023-05-05T12:05:20.240Z,55.65
2023-05-05T12:06:20.231Z,55.15
2023-05-05T12:07:20.224Z,55.02
2023-05-05T12:08:20.182Z,56.02
2023-05-05T12:09:20.157Z,56.22
2023-05-05T12:10:20.302Z,56.42
2023-05-05T12:11:20.382Z,55.12
2023-05-05T12:13:56.874Z,55.22
2023-05-05T12:14:57.786Z,55.32
2023-05-05T12:15:58.572Z,54.42
2023-05-05T12:16:57.717Z,54.12
2023-05-05T12:18:00.012Z,54.52
2023-05-05T12:18:58.021Z,54.32
2023-05-05T12:19:57.684Z,53.82
2023-05-05T12:20:57.891Z,53.52
2023-05-05T12:22:00.355Z,53.99
2023-05-05T12:22:58.232Z,54.60
2023-05-05T12:23:57.735Z,54.27
2023-05-05T12:24:58.055Z,53.97
2023-05-05T12:25:57.901Z,53.57
2023-05-05T12:26:59.366Z,54.34
2023-05-05T12:27:57.715Z,53.54
2023-05-05T12:28:57.846Z,53.74
2023-05-05T12:29:58.214Z,54.14
2023-05-05T12:30:58.501Z,53.54
2023-05-05T12:31:58.152Z,54.84
2023-05-05T12:32:57.653Z,53.14
2023-05-05T12:33:57.776Z,52.94
2023-05-05T12:34:58.124Z,53.47
2023-05-05T12:35:57.441Z,53.27
2023-05-05T12:36:57.529Z,52.87
2023-05-05T12:37:57.679Z,52.97
2023-05-05T12:38:57.505Z,54.27
2023-05-05T12:39:57.819Z,54.39
2023-05-05T12:40:59.506Z,54.69
2023-05-05T12:41:59.369Z,54.60
2023-05-05T12:42:57.552Z,54.79
2023-05-05T12:43:57.562Z,54.92
2023-05-05T12:44:57.620Z,54.92
2023-05-05T12:45:57.464Z,54.92
2023-05-05T12:46:57.479Z,55.72
2023-05-05T12:47:57.415Z,55.12
2023-05-05T12:48:57.375Z,54.64
2023-05-05T12:49:57.704Z,55.15
2023-05-05T13:08:48.748Z,56.45
2023-05-05T13:09:49.671Z,57.45
2023-05-05T13:10:49.897Z,56.74
2023-05-05T13:11:50.355Z,57.65
2023-05-05T13:12:49.620Z,58.05
2023-05-05T13:13:49.574Z,56.45
2023-05-05T13:14:51.274Z,55.55
2023-05-05T13:18:04.955Z,58.05
2023-05-05T13:20:16.748Z,56.35
2023-05-05T13:21:17.666Z,56.67
2023-05-05T13:22:17.798Z,58.00
2023-05-05T13:23:17.635Z,57.20
2023-05-05T13:25:17.602Z,58.83
2023-05-05T13:26:18.104Z,59.13
2023-05-05T13:27:17.622Z,60.53
2023-05-05T13:30:33.991Z,61.90
2023-05-05T13:31:33.638Z,59.77
2023-05-05T13:32:33.647Z,60.39
2023-05-05T13:33:33.931Z,61.10